Clermont, New Jersey
Current Conditions -  °F | °C
As of 1:35 PM on Sunday 21 Dec 2014 (Local Time) from KWWD Reporting Station
Clear Clear  
Wind Chill: 30°   Ceiling: Unl
Heat Index: 37°   Visibility: 10mi
Dew Point: 23°   Wind: 12mph
Humidity: 56%   Direction: 280°W
Pressure: 30.28"   Gusts: NA
Location:  39.1108°N, 74.8241°W
Report Text: KWWD 211835Z AUTO 28010KT 10SM CLR 03/M05 A3028 RMK AO1
Loading
Personal Weather Stations






























Interactive Weather Map New forecast layout! Learn more

10-Day Weather Forecast

Advertisements
Track Severe Weather on mobile